Sonic Adventure (DX): Overall Rankings

Records: Times | Rings | Scores | Races | Bosses | Freestyle
Leaders: Times | Rings | Scores | Races | Bosses | Freestyle | Overall
Rank Order Asc Player Percent Points Date
1 Sonicspeedruner 97.9% 359 01-16-19
2 Gamepro011 97.9% 364 01-16-19
3 DarkPolarNight 96.6% 591 01-16-19
4 Jawzun 93.0% 1232 01-16-19
5 Dashjump 91.5% 1495 01-16-19
6 DarkspinesSonic 89.7% 1817 01-16-19
7 Avento128bits 89.5% 1860 01-16-19
8 ike6252 89.3% 1895 01-16-19
9 F-Man 87.5% 2212 01-16-19
10 Coolfansonic 87.1% 2279 01-16-19
11 HyperSonic7701 84.1% 2805 01-16-19
12 TheRealShadnic 83.9% 2845 01-16-19
13 yoshifan 82.5% 3096 01-16-19
14 frankoredstrato 82.1% 3171 01-16-19
15 francisco 81.1% 3338 01-16-19
16 Marth 81.0% 3363 01-16-19
17 InferSaime 79.6% 3601 01-16-19
18 PfoSonic 79.2% 3674 01-16-19
19 Paragod 78.8% 3752 01-16-19
20 THC98 78.0% 3891 01-16-19
21 Stefan 75.5% 4325 01-16-19
22 RPGnutter 73.5% 4687 01-16-19
23 bertin 73.3% 4722 01-16-19
24 sonicam 71.2% 5088 01-16-19
25 Dekuboy 70.8% 5162 01-16-19
26 drminus 69.8% 5334 01-16-19
27 chainchumper 65.8% 6054 01-16-19
28 xXMegaManXx 65.7% 6077 01-16-19
29 Combo 65.3% 6141 01-16-19
30 chaos shadow 64.7% 6245 01-16-19
31 SkyLights 64.1% 6351 01-16-19
32 Diamond 62.1% 6709 01-16-19
33 Auriman1 60.0% 7083 01-16-19
34 OmegaDJ 59.9% 7092 01-16-19
35 GerbilSoft 59.9% 7094 01-16-19
36 magnum12 59.2% 7227 01-16-19
37 Thorn 56.9% 7620 01-16-19
38 P1 Pause 56.8% 7654 01-16-19
39 mike89 55.6% 7865 01-16-19
40 Dave Cramer 53.7% 8194 01-16-19
41 Groudon199 53.7% 8197 01-16-19
42 Parax 53.1% 8299 01-16-19
43 Shadow Jacky 52.5% 8401 01-16-19
44 Psymar 47.6% 9283 01-16-19
45 Arch 46.6% 9446 01-16-19
46 Chao_Fan 45.8% 9597 01-16-19
47 mauserman 45.0% 9733 01-16-19
48 Quartz 44.7% 9797 01-16-19
49 teamblackarms 44.0% 9915 01-16-19
50 Calfd 43.3% 10035 01-16-19
51 Psyknux 43.1% 10065 01-16-19
52 James_Bertolli 42.9% 10112 01-16-19
53 Cyan Ryan 42.7% 10139 01-16-19
54 NintenDan 42.4% 10199 01-16-19
55 Webber3000 41.8% 10299 01-16-19
56 Turbos 41.8% 10311 01-16-19
57 Ring Rush 41.6% 10340 01-16-19
58 Fr3nZy 41.3% 10390 01-16-19
59 Cream147 41.3% 10394 01-16-19
60 videogamemaster777 41.3% 10398 01-16-19
61 Siavash Tazari 41.1% 10435 01-16-19
62 Zurggriff 40.8% 10476 01-16-19
63 buddychaos0415 40.5% 10526 01-16-19
64 SadisticMystic 40.0% 10615 01-16-19
65 ethmar 39.7% 10672 01-16-19
66 eggFL 39.1% 10774 01-16-19
67 SB737 37.5% 11058 01-16-19
68 supersonic465 37.0% 11147 01-16-19
69 supersonicfan 36.4% 11257 01-16-19
70 FuzZerd 35.3% 11447 01-16-19
71 Aitamen 34.9% 11528 01-16-19
72 elecmouse101 34.4% 11606 01-16-19
73 BigAL49 34.4% 11613 01-16-19
74 danieldude 34.4% 11623 01-16-19
75 Austinf 33.7% 11743 01-16-19
76 metanightmare22 33.1% 11840 01-16-19
77 dabestgamer 32.7% 11913 01-16-19
78 MiStEr_ShAoLiN 32.7% 11919 01-16-19
79 Andrea Ritsu 31.9% 12054 01-16-19
80 itsPersonnal 31.6% 12110 01-16-19
81 WeegeeZV 31.5% 12124 01-16-19
82 Cybrax 30.9% 12232 01-16-19
83 JamminX42 30.7% 12274 01-16-19
84 Nim 30.6% 12280 01-16-19
85 SilvertheAlmighty 30.6% 12293 01-16-19
86 Mastakirby 30.3% 12341 01-16-19
87 VMU Player Banned 28.9% 12591 01-16-19
88 Omega Rafael Santos 28.4% 12674 01-16-19
89 Staf 28.2% 12711 01-16-19
90 The T 28.0% 12751 01-16-19
91 EngiNerd 27.7% 12802 01-16-19
92 lordmetalsonic 27.1% 12907 01-16-19
93 Hipertails12 26.8% 12955 01-16-19
94 welldooder64 26.6% 12999 01-16-19
95 GreatStar 26.4% 13025 01-16-19
96 The Great Lord Mick 26.3% 13057 01-16-19
97 Niczur 26.1% 13077 01-16-19
98 Sondow 26.1% 13081 01-16-19
99 LinksDarkArrows 25.9% 13121 01-16-19
100 Skylace 25.0% 13285 01-16-19
101 a_moustache 24.0% 13452 01-16-19
102 Rolken 23.5% 13547 01-16-19
103 Xia 21.9% 13833 01-16-19
104 Spinballwizard 21.9% 13836 01-16-19
105 Kogen Player Banned 21.8% 13853 01-16-19
106 Twilisailor 21.4% 13926 01-16-19
107 f0rever_zer0 21.3% 13932 01-16-19
108 Don 21.3% 13941 01-16-19
109 Cutiefox 21.2% 13952 01-16-19
110 Game_Complete 21.1% 13962 01-16-19
111 Miles9999 21.1% 13972 01-16-19
112 andres430 20.5% 14080 01-16-19
113 Cruizer 20.4% 14101 01-16-19
114 iSonicKid2K 20.1% 14141 01-16-19
115 SADXTryHard 20.0% 14174 01-16-19
116 GarnetPrincess 19.5% 14257 01-16-19
117 N 19.2% 14300 01-16-19
118 AxlThunder 18.9% 14357 01-16-19
119 knuckles_sonic8 18.5% 14430 01-16-19
120 KinkyCadence 18.1% 14499 01-16-19
121 The Knuckles Chao 18.1% 14504 01-16-19
122 Team_Yoshi 17.8% 14553 01-16-19
123 Termon 17.8% 14556 01-16-19
124 LittleBigness 17.6% 14585 01-16-19
125 SonicWinDX 17.5% 14603 01-16-19
126 FoxBoy 17.4% 14624 01-16-19
127 CoEmpathy 17.3% 14640 01-16-19
128 Drakodan 16.8% 14730 01-16-19
129 Sonic Singularity 15.8% 14901 01-16-19
130 Pokemonmaster888 15.5% 14962 01-16-19
131 paulie9990 15.1% 15035 01-16-19
132 SilverSonic 14.5% 15147 01-16-19
133 MPit08 14.3% 15174 01-16-19
134 Mo Player Banned 14.0% 15222 01-16-19
135 koinu93 14.0% 15230 01-16-19
136 HyperSonic64 13.5% 15317 01-16-19
137 Cod4Scopes 13.5% 15319 01-16-19
138 Jerzia 13.3% 15345 01-16-19
139 booo95 13.3% 15348 01-16-19
139 Chawkk 13.3% 15348 01-16-19
141 Hunters13 13.1% 15389 01-16-19
142 SuperSonic101 12.9% 15415 01-16-19
143 Maxinfamily 12.9% 15424 01-16-19
144 R3FR4G 12.7% 15464 01-16-19
145 Kanimayo_Jp 12.5% 15493 01-16-19
146 LilZero 12.5% 15494 01-16-19
147 Flying Fox 12.4% 15516 01-16-19
147 PsyBorg 12.4% 15516 01-16-19
149 BrokenArthritis 12.3% 15522 01-16-19
150 Therio 11.9% 15596 01-16-19
151 sonicspeed 11.7% 15630 01-16-19
152 douglas 11.7% 15643 01-16-19
153 thewaytodawnnn 11.3% 15700 01-16-19
154 Matt_TY 11.3% 15707 01-16-19
155 ModifiedMonkee 11.1% 15742 01-16-19
156 Cooljay 10.8% 15800 01-16-19
157 SuperBlitzCraig 10.6% 15827 01-16-19
158 joecoolgames 10.6% 15831 01-16-19
159 SeaWolf 10.5% 15844 01-16-19
160 videogamer1014 10.4% 15873 01-16-19
161 AC-Tygo 10.1% 15912 01-16-19
162 welshmoose05 10.1% 15923 01-16-19
163 crazy1993 9.9% 15958 01-16-19
164 OddCook 9.9% 15960 01-16-19
165 TFEC Headshot 9.7% 15987 01-16-19
166 Mcshuggets 9.6% 16009 01-16-19
167 Mariobutch 9.4% 16043 01-16-19
168 niscool 9.4% 16046 01-16-19
169 nuckrieg 9.3% 16062 01-16-19
170 Irregular Zero 9.2% 16080 01-16-19
171 SonicAD 9.1% 16096 01-16-19
172 Shadowthegreat 8.9% 16124 01-16-19
173 superjupi 8.9% 16128 01-16-19
174 SirTobbii 8.9% 16137 01-16-19
175 sonamyfan666 8.7% 16176 01-16-19
176 iarebored 8.6% 16191 01-16-19
177 Powerjohn25 8.5% 16196 01-16-19
178 SaviourDC 8.5% 16200 01-16-19
179 SonicKnuckles 8.5% 16201 01-16-19
180 Werey 8.2% 16253 01-16-19
181 adf 8.1% 16266 01-16-19
182 Megaman EXE565 7.9% 16311 01-16-19
183 ArcticDragon 7.6% 16368 01-16-19
184 Platformer 7.5% 16377 01-16-19
185 timpkmn89 7.4% 16393 01-16-19
186 FocusSight64 7.3% 16415 01-16-19
187 wheatrich 7.3% 16419 01-16-19
188 Swift Hobo 7.3% 16422 01-16-19
189 Rickyman48 7.0% 16463 01-16-19
190 KitsuneYamaro 6.9% 16478 01-16-19
191 Triseena 6.8% 16507 01-16-19
192 Sm4sh 6.7% 16514 01-16-19
193 Destroyer121121 6.6% 16545 01-16-19
194 dShadow 6.5% 16560 01-16-19
195 CyberShadow 6.5% 16565 01-16-19
196 Starlight Sable 6.4% 16568 01-16-19
197 slade23 6.4% 16573 01-16-19
198 IsisDazs 6.3% 16599 01-16-19
199 BlankTH 6.0% 16638 01-16-19
200 Monkeh 6.0% 16646 01-16-19
201 Redd 5.9% 16655 01-16-19
202 Badlex727 5.9% 16665 01-16-19
203 SonicU260 5.8% 16677 01-16-19
204 Richied 5.7% 16697 01-16-19
205 DaDude 5.6% 16712 01-16-19
206 Swinkly 5.6% 16714 01-16-19
207 Crispian 5.6% 16715 01-16-19
208 Vicklaw 5.6% 16717 01-16-19
209 sonicd5 5.5% 16728 01-16-19
210 Zip 5.5% 16734 01-16-19
211 VeritasDL 5.3% 16778 01-16-19
212 ALundstrom10 5.1% 16799 01-16-19
212 tal39h 5.1% 16799 01-16-19
214 Kirbymon30 5.1% 16805 01-16-19
215 soniccoloursunleashed 4.9% 16836 01-16-19
216 Drflash55 4.9% 16848 01-16-19
217 Bass 4.8% 16855 01-16-19
218 neaolas 4.7% 16876 01-16-19
219 superiorsonic 4.7% 16881 01-16-19
220 zapp 4.6% 16891 01-16-19
221 Yish 4.6% 16892 01-16-19
222 UninspiredUsername 4.5% 16904 01-16-19
223 Sonicsuperstar1 4.5% 16912 01-16-19
224 gamefreak1292 4.4% 16923 01-16-19
225 Sora_yx 4.3% 16953 01-16-19
226 Chaos_Overlord 4.1% 16979 01-16-19
227 TakaRikka 4.0% 17001 01-16-19
228 Valfore 4.0% 17006 01-16-19
229 Dage4Aquatic 3.8% 17030 01-16-19
230 ShinigamiMachine 3.8% 17041 01-16-19
231 Regano1000 3.7% 17049 01-16-19
232 MK 3.7% 17054 01-16-19
233 Ace747 3.5% 17083 01-16-19
234 Jua Rever 3.4% 17106 01-16-19
235 Illidan 3.2% 17147 01-16-19
236 HHNNBBHHN 3.1% 17155 01-16-19
237 Brian_pso 3.1% 17160 01-16-19
238 Venick409 3.1% 17161 01-16-19
239 Sithwarrior26 3.1% 17164 01-16-19
240 nman36 3.1% 17166 01-16-19
241 Egor305 2.9% 17187 01-16-19
242 SkyBon 2.9% 17190 01-16-19
243 TheChaosEmeraIds 2.9% 17193 01-16-19
244 ingx24 2.9% 17194 01-16-19
245 Nickson98 2.9% 17203 01-16-19
246 dekki1234 2.9% 17204 01-16-19
247 FSSRandomvids 2.8% 17216 01-16-19
248 Fozer 2.8% 17219 01-16-19
249 Colomb_30 2.7% 17223 01-16-19
250 Aiko 2.7% 17233 01-16-19
251 sonic29887 2.7% 17236 01-16-19
252 TheUltraBlur 2.6% 17246 01-16-19
253 1stKirbyever 2.6% 17252 01-16-19
254 TimTH 2.5% 17269 01-16-19
255 Th4tN1nj4Turtl3 2.4% 17290 01-16-19
256 Cort_pso 2.3% 17301 01-16-19
257 ieatatsonic 2.3% 17305 01-16-19
258 Doom-9 2.2% 17312 01-16-19
259 Mariosonic15 2.2% 17313 01-16-19
260 Artie 2.1% 17331 01-16-19
260 MStitomix 2.1% 17331 01-16-19
262 HermitHelmet 2.1% 17335 01-16-19
263 SuperSonic71087 2.0% 17355 01-16-19
264 Got4n 2.0% 17356 01-16-19
265 Questionguy555 2.0% 17360 01-16-19
266 Jose_15 1.9% 17366 01-16-19
267 djmat 1.9% 17379 01-16-19
268 SuperSonicfan9595 1.8% 17387 01-16-19
269 sonicandamy Player Banned 1.7% 17400 01-16-19
270 Heroes_Hater 1.7% 17407 01-16-19
271 LancexExWx 1.7% 17411 01-16-19
272 Paixii 1.7% 17414 01-16-19
273 son1cgu1tar 1.7% 17415 01-16-19
274 BallzeH 1.6% 17433 01-16-19
274 Mankster101 1.6% 17433 01-16-19
276 BecauseWarAnvil 1.5% 17439 01-16-19
277 Jamixesa 1.5% 17443 01-16-19
278 Shanekilz 1.5% 17451 01-16-19
278 SpiritDragon1995 1.5% 17451 01-16-19
280 Crydio 1.4% 17456 01-16-19
281 MarewBFN 1.3% 17472 01-16-19
282 stanski 1.3% 17475 01-16-19
283 Sonique Hedgehog 1.3% 17479 01-16-19
284 ArthurVGCP 1.2% 17490 01-16-19
285 Blue Infamy 1.2% 17491 01-16-19
286 p0ker 1.2% 17492 01-16-19
287 ErrortheCucco 1.2% 17502 01-16-19
288 Rikum22 1.2% 17505 01-16-19
289 Arthas 1.1% 17508 01-16-19
290 sonic1001 1.1% 17513 01-16-19
291 syco1098 1.1% 17520 01-16-19
292 AJSIV 1.1% 17521 01-16-19
293 WingedInsignia 1.1% 17523 01-16-19
294 Sonic the Hedgehod16 1.0% 17524 01-16-19
295 ASINISTERTACO 1.0% 17531 01-16-19
296 sonicfan9 1.0% 17538 01-16-19
297 BlackArmsShadow 0.9% 17545 01-16-19
298 themachoman202 0.9% 17547 01-16-19
299 darkstarblaze 0.9% 17549 01-16-19
300 shadowblast63 Player Banned 0.9% 17551 01-16-19
301 MastaToken 0.9% 17555 01-16-19
302 Fivavoa 0.9% 17556 01-16-19
303 Greham Adelphis 0.9% 17558 01-16-19
303 Mr. Jones 0.9% 17558 01-16-19
305 Ben1502 0.8% 17559 01-16-19
306 arcfx1985 0.8% 17561 01-16-19
307 TommyeAsY 0.8% 17562 01-16-19
308 ptorflaxendrosis 0.8% 17564 01-16-19
309 Gvozdevik 0.8% 17567 01-16-19
309 Knuckles 0.8% 17567 01-16-19
311 FlandreScarlet9999vr 0.8% 17569 01-16-19
312 Zeldocto 0.8% 17571 01-16-19
313 KaM Mark MaK 0.8% 17575 01-16-19
314 BeeAwwb 0.8% 17576 01-16-19
315 ShadouZaHejjihoggu 0.7% 17582 01-16-19
316 Sarger001 0.7% 17587 01-16-19
317 Sogeking 0.7% 17588 01-16-19
318 Sonic The Star 0.7% 17590 01-16-19
319 darkersupershadic 0.7% 17591 01-16-19
320 dragondragon18 0.7% 17592 01-16-19
320 Sonic62 0.7% 17592 01-16-19
322 SonicK100 0.6% 17598 01-16-19
323 Grady219 0.6% 17599 01-16-19
323 Shadygamerfreak 0.6% 17599 01-16-19
325 BioShadow 0.6% 17601 01-16-19
326 Jawaah 0.6% 17605 01-16-19
327 Antek 0.6% 17608 01-16-19
328 Klaus 0.6% 17610 01-16-19
329 SilverK 0.6% 17611 01-16-19
330 SpinDashMaster 0.5% 17612 01-16-19
331 Videogamer123 0.5% 17621 01-16-19
332 oTaiIilLsS 0.4% 17634 01-16-19
333 isaihtb11 0.4% 17637 01-16-19
334 zaktu40 0.4% 17638 01-16-19
335 OhNoes! 0.4% 17639 01-16-19
336 gaara1234 0.4% 17641 01-16-19
336 Mad Andy 0.4% 17641 01-16-19
338 S-MS32X-S 0.4% 17643 01-16-19
339 gamed00d 0.4% 17644 01-16-19
340 Mister_Slick 0.3% 17655 01-16-19
341 Rush Hero 0.3% 17658 01-16-19
342 ChaosNexuss 0.3% 17659 01-16-19
342 Sonic06Fan 0.3% 17659 01-16-19
344 SonicMega167 0.3% 17664 01-16-19
345 Iwannabelink 0.2% 17665 01-16-19
346 sonknuck23 0.2% 17670 01-16-19
347 gamer1245 0.2% 17678 01-16-19
348 DanielTheFalcon 0.2% 17679 01-16-19
349 Burningskull123 0.1% 17683 01-16-19
350 Sonicontherun 0.1% 17695 01-16-19
351 Lil_Dude 0.1% 17699 01-16-19
352 antiwwe 0.0% 17701 01-16-19
353 Tyrouble 0.0% 17703 01-16-19
354 Genuine Hedgehog 0.0% 17704 01-16-19
354 SonataSpinDash 0.0% 17704 01-16-19
356 Cbwade15 0.0% 17706 01-16-19
357 MegabombBlade 0.0% 17718 01-16-19
357 neji_hyuuga 0.0% 17718 01-16-19
357 Over 0.0% 17718 01-16-19
357 sdj6707 Player Banned 0.0% 17718 01-16-19
357 Tran Sonic Fan Player Banned 0.0% 17718 01-16-19

This page is using the New Data Table System. [FUTURE]

Game ID: 3 | Category ID: 10
Hits: 74,054 | Hits This Month: 128 | DB Calls: 21 | Mem Usage: 5.89 MB | Time: 0.14s | Printable

The Sonic Center v3.9
Copyright 2003-2011 by The Sonic Center Team.